Milford, Ohio
Current Conditions -  °F | °C
As of 12:53 PM on Friday 28 Nov 2014 (Local Time) from KLUK Reporting Station
Few Clouds Few Clouds  
Wind Chill: 26°   Ceiling: Unl
Heat Index: 34°   Visibility: 10mi
Dew Point: 16°   Wind: 10mph
Humidity: 48%   Direction: 210°SSW
Pressure: 30.33"   Gusts: NA
Location:  39.17°N, 84.3°W
Report Text: KLUK 281753Z 21009KT 10SM FEW110 01/M09 A3033 RMK AO2 SLP274 T00111089 10011 21028 58026
Loading
Personal Weather Stations






























Interactive Weather Map New forecast layout! Learn more

10-Day Weather Forecast

Advertisements
Track Severe Weather on mobile